sensor_id;sensor_type;location;lat;lon;timestamp;P1;durP1;ratioP1;P2;durP2;ratioP2
41293;SDS011;27037;52.010;4.446;2023-04-15T00:01:20;11.48;;;4.53;;
41293;SDS011;27037;52.010;4.446;2023-04-15T00:03:46;12.73;;;5.28;;
41293;SDS011;27037;52.010;4.446;2023-04-15T00:06:14;11.77;;;5.50;;
41293;SDS011;27037;52.010;4.446;2023-04-15T00:08:40;16.63;;;5.97;;
41293;SDS011;27037;52.010;4.446;2023-04-15T00:11:05;10.65;;;5.45;;
41293;SDS011;27037;52.010;4.446;2023-04-15T00:13:31;11.38;;;5.82;;
41293;SDS011;27037;52.010;4.446;2023-04-15T00:15:58;14.82;;;5.93;;
41293;SDS011;27037;52.010;4.446;2023-04-15T00:18:23;10.80;;;5.25;;
41293;SDS011;27037;52.010;4.446;2023-04-15T00:20:49;11.02;;;6.25;;
41293;SDS011;27037;52.010;4.446;2023-04-15T00:23:15;13.93;;;5.75;;
41293;SDS011;27037;52.010;4.446;2023-04-15T00:25:40;10.57;;;5.72;;
41293;SDS011;27037;52.010;4.446;2023-04-15T00:28:06;11.05;;;5.82;;
41293;SDS011;27037;52.010;4.446;2023-04-15T00:30:32;13.82;;;6.28;;
41293;SDS011;27037;52.010;4.446;2023-04-15T00:32:58;12.48;;;5.80;;
41293;SDS011;27037;52.010;4.446;2023-04-15T00:35:26;14.77;;;5.95;;
41293;SDS011;27037;52.010;4.446;2023-04-15T00:37:52;14.68;;;5.60;;
41293;SDS011;27037;52.010;4.446;2023-04-15T00:40:18;16.55;;;6.20;;
41293;SDS011;27037;52.010;4.446;2023-04-15T00:42:45;12.80;;;5.88;;
41293;SDS011;27037;52.010;4.446;2023-04-15T00:45:11;15.48;;;6.57;;
41293;SDS011;27037;52.010;4.446;2023-04-15T00:47:37;11.30;;;6.43;;
41293;SDS011;27037;52.010;4.446;2023-04-15T00:50:05;13.32;;;6.13;;
41293;SDS011;27037;52.010;4.446;2023-04-15T00:52:31;11.07;;;6.50;;
41293;SDS011;27037;52.010;4.446;2023-04-15T00:54:57;10.82;;;5.82;;
41293;SDS011;27037;52.010;4.446;2023-04-15T00:57:23;17.33;;;6.45;;
41293;SDS011;27037;52.010;4.446;2023-04-15T00:59:50;11.05;;;6.40;;
41293;SDS011;27037;52.010;4.446;2023-04-15T01:02:17;13.05;;;6.68;;
41293;SDS011;27037;52.010;4.446;2023-04-15T01:04:42;15.70;;;6.93;;
41293;SDS011;27037;52.010;4.446;2023-04-15T01:07:08;15.65;;;6.65;;
41293;SDS011;27037;52.010;4.446;2023-04-15T01:09:33;13.30;;;6.70;;
41293;SDS011;27037;52.010;4.446;2023-04-15T01:11:59;15.50;;;6.80;;
41293;SDS011;27037;52.010;4.446;2023-04-15T01:14:26;13.82;;;6.90;;
41293;SDS011;27037;52.010;4.446;2023-04-15T01:16:53;11.10;;;6.70;;
41293;SDS011;27037;52.010;4.446;2023-04-15T01:19:18;15.52;;;7.32;;
41293;SDS011;27037;52.010;4.446;2023-04-15T01:21:44;17.45;;;7.50;;
41293;SDS011;27037;52.010;4.446;2023-04-15T01:24:10;15.45;;;7.22;;
41293;SDS011;27037;52.010;4.446;2023-04-15T01:26:37;14.43;;;7.13;;
41293;SDS011;27037;52.010;4.446;2023-04-15T01:29:03;14.35;;;7.00;;
41293;SDS011;27037;52.010;4.446;2023-04-15T01:31:29;13.75;;;7.00;;
41293;SDS011;27037;52.010;4.446;2023-04-15T01:33:55;14.57;;;7.47;;
41293;SDS011;27037;52.010;4.446;2023-04-15T01:36:20;13.02;;;7.57;;
41293;SDS011;27037;52.010;4.446;2023-04-15T01:38:46;12.40;;;7.78;;
41293;SDS011;27037;52.010;4.446;2023-04-15T01:41:12;13.77;;;7.55;;
41293;SDS011;27037;52.010;4.446;2023-04-15T01:43:38;16.13;;;7.40;;
41293;SDS011;27037;52.010;4.446;2023-04-15T01:46:04;15.05;;;7.45;;
41293;SDS011;27037;52.010;4.446;2023-04-15T01:48:30;14.77;;;7.55;;
41293;SDS011;27037;52.010;4.446;2023-04-15T01:50:56;16.05;;;8.18;;
41293;SDS011;27037;52.010;4.446;2023-04-15T01:53:25;15.98;;;7.93;;
41293;SDS011;27037;52.010;4.446;2023-04-15T01:55:51;14.88;;;7.88;;
41293;SDS011;27037;52.010;4.446;2023-04-15T01:58:18;17.85;;;7.70;;
41293;SDS011;27037;52.010;4.446;2023-04-15T02:00:44;11.63;;;7.75;;
41293;SDS011;27037;52.010;4.446;2023-04-15T02:03:09;14.48;;;7.95;;
41293;SDS011;27037;52.010;4.446;2023-04-15T02:05:35;14.88;;;7.55;;
41293;SDS011;27037;52.010;4.446;2023-04-15T02:08:01;13.43;;;8.10;;
41293;SDS011;27037;52.010;4.446;2023-04-15T02:10:27;14.05;;;8.40;;
41293;SDS011;27037;52.010;4.446;2023-04-15T02:12:53;12.55;;;8.02;;
41293;SDS011;27037;52.010;4.446;2023-04-15T02:15:18;13.70;;;8.18;;
41293;SDS011;27037;52.010;4.446;2023-04-15T02:17:44;13.30;;;8.07;;
41293;SDS011;27037;52.010;4.446;2023-04-15T02:20:14;14.77;;;8.05;;
41293;SDS011;27037;52.010;4.446;2023-04-15T02:22:40;13.38;;;8.07;;
41293;SDS011;27037;52.010;4.446;2023-04-15T02:25:06;12.68;;;7.95;;
41293;SDS011;27037;52.010;4.446;2023-04-15T02:27:33;12.60;;;7.75;;
41293;SDS011;27037;52.010;4.446;2023-04-15T02:29:59;15.25;;;7.88;;
41293;SDS011;27037;52.010;4.446;2023-04-15T02:32:25;12.68;;;7.95;;
41293;SDS011;27037;52.010;4.446;2023-04-15T02:34:51;12.52;;;7.85;;
41293;SDS011;27037;52.010;4.446;2023-04-15T02:37:17;11.95;;;7.68;;
41293;SDS011;27037;52.010;4.446;2023-04-15T02:39:44;13.25;;;8.23;;
41293;SDS011;27037;52.010;4.446;2023-04-15T02:42:10;11.63;;;8.20;;
41293;SDS011;27037;52.010;4.446;2023-04-15T02:44:37;12.80;;;8.07;;
41293;SDS011;27037;52.010;4.446;2023-04-15T02:47:02;14.70;;;8.20;;
41293;SDS011;27037;52.010;4.446;2023-04-15T02:49:30;14.77;;;8.45;;
41293;SDS011;27037;52.010;4.446;2023-04-15T02:51:56;15.02;;;8.52;;
41293;SDS011;27037;52.010;4.446;2023-04-15T02:54:24;17.77;;;9.50;;
41293;SDS011;27037;52.010;4.446;2023-04-15T02:56:52;14.77;;;9.05;;
41293;SDS011;27037;52.010;4.446;2023-04-15T02:59:21;16.30;;;9.25;;
41293;SDS011;27037;52.010;4.446;2023-04-15T03:01:46;13.65;;;9.20;;
41293;SDS011;27037;52.010;4.446;2023-04-15T03:04:12;13.77;;;9.23;;
41293;SDS011;27037;52.010;4.446;2023-04-15T03:06:38;13.93;;;8.43;;
41293;SDS011;27037;52.010;4.446;2023-04-15T03:09:04;12.93;;;8.68;;
41293;SDS011;27037;52.010;4.446;2023-04-15T03:11:29;19.80;;;8.70;;
41293;SDS011;27037;52.010;4.446;2023-04-15T03:13:55;16.17;;;8.43;;
41293;SDS011;27037;52.010;4.446;2023-04-15T03:16:22;13.50;;;8.30;;
41293;SDS011;27037;52.010;4.446;2023-04-15T03:18:47;17.17;;;8.90;;
41293;SDS011;27037;52.010;4.446;2023-04-15T03:21:13;15.20;;;8.52;;
41293;SDS011;27037;52.010;4.446;2023-04-15T03:23:38;16.45;;;8.50;;
41293;SDS011;27037;52.010;4.446;2023-04-15T03:26:04;14.85;;;8.25;;
41293;SDS011;27037;52.010;4.446;2023-04-15T03:28:30;15.20;;;8.07;;
41293;SDS011;27037;52.010;4.446;2023-04-15T03:30:56;14.63;;;8.85;;
41293;SDS011;27037;52.010;4.446;2023-04-15T03:33:22;17.00;;;9.35;;
41293;SDS011;27037;52.010;4.446;2023-04-15T03:35:49;18.25;;;9.32;;
41293;SDS011;27037;52.010;4.446;2023-04-15T03:38:15;16.30;;;8.75;;
41293;SDS011;27037;52.010;4.446;2023-04-15T03:40:41;15.98;;;9.30;;
41293;SDS011;27037;52.010;4.446;2023-04-15T03:43:07;12.90;;;8.40;;
41293;SDS011;27037;52.010;4.446;2023-04-15T03:45:33;15.43;;;9.82;;
41293;SDS011;27037;52.010;4.446;2023-04-15T03:47:58;14.50;;;9.02;;
41293;SDS011;27037;52.010;4.446;2023-04-15T03:50:24;15.07;;;9.70;;
41293;SDS011;27037;52.010;4.446;2023-04-15T03:52:50;13.73;;;9.55;;
41293;SDS011;27037;52.010;4.446;2023-04-15T03:55:15;14.05;;;8.77;;
41293;SDS011;27037;52.010;4.446;2023-04-15T03:57:41;13.95;;;9.27;;
41293;SDS011;27037;52.010;4.446;2023-04-15T04:00:07;14.13;;;9.38;;
41293;SDS011;27037;52.010;4.446;2023-04-15T04:02:34;17.83;;;9.38;;
41293;SDS011;27037;52.010;4.446;2023-04-15T04:05:00;14.70;;;8.88;;
41293;SDS011;27037;52.010;4.446;2023-04-15T04:07:25;17.17;;;9.65;;
41293;SDS011;27037;52.010;4.446;2023-04-15T04:09:51;14.60;;;9.18;;
41293;SDS011;27037;52.010;4.446;2023-04-15T04:12:17;20.35;;;9.88;;
41293;SDS011;27037;52.010;4.446;2023-04-15T04:14:42;14.90;;;9.50;;
41293;SDS011;27037;52.010;4.446;2023-04-15T04:17:08;15.35;;;9.98;;
41293;SDS011;27037;52.010;4.446;2023-04-15T04:19:34;13.88;;;8.73;;
41293;SDS011;27037;52.010;4.446;2023-04-15T04:22:00;14.38;;;9.23;;
41293;SDS011;27037;52.010;4.446;2023-04-15T04:24:26;14.77;;;9.40;;
41293;SDS011;27037;52.010;4.446;2023-04-15T04:26:51;16.27;;;10.63;;
41293;SDS011;27037;52.010;4.446;2023-04-15T04:29:17;17.52;;;9.95;;
41293;SDS011;27037;52.010;4.446;2023-04-15T04:31:43;16.05;;;10.40;;
41293;SDS011;27037;52.010;4.446;2023-04-15T04:34:08;15.50;;;9.88;;
41293;SDS011;27037;52.010;4.446;2023-04-15T04:36:34;16.13;;;10.60;;
41293;SDS011;27037;52.010;4.446;2023-04-15T04:38:59;16.23;;;10.85;;
41293;SDS011;27037;52.010;4.446;2023-04-15T04:41:25;18.15;;;10.82;;
41293;SDS011;27037;52.010;4.446;2023-04-15T04:43:51;18.17;;;10.20;;
41293;SDS011;27037;52.010;4.446;2023-04-15T04:46:16;15.80;;;10.30;;
41293;SDS011;27037;52.010;4.446;2023-04-15T04:48:42;14.48;;;9.60;;
41293;SDS011;27037;52.010;4.446;2023-04-15T04:51:08;17.13;;;9.50;;
41293;SDS011;27037;52.010;4.446;2023-04-15T04:53:34;16.05;;;9.93;;
41293;SDS011;27037;52.010;4.446;2023-04-15T04:56:01;20.20;;;10.30;;
41293;SDS011;27037;52.010;4.446;2023-04-15T04:58:27;16.75;;;10.35;;
41293;SDS011;27037;52.010;4.446;2023-04-15T05:00:52;19.60;;;10.48;;
41293;SDS011;27037;52.010;4.446;2023-04-15T05:03:18;18.40;;;10.45;;
41293;SDS011;27037;52.010;4.446;2023-04-15T05:05:44;17.52;;;10.30;;
41293;SDS011;27037;52.010;4.446;2023-04-15T05:08:10;20.17;;;11.07;;
41293;SDS011;27037;52.010;4.446;2023-04-15T05:10:36;19.33;;;10.85;;
41293;SDS011;27037;52.010;4.446;2023-04-15T05:13:01;16.60;;;10.77;;
41293;SDS011;27037;52.010;4.446;2023-04-15T05:15:27;16.08;;;9.93;;
41293;SDS011;27037;52.010;4.446;2023-04-15T05:17:53;15.68;;;10.40;;
41293;SDS011;27037;52.010;4.446;2023-04-15T05:20:19;17.17;;;9.73;;
41293;SDS011;27037;52.010;4.446;2023-04-15T05:22:44;15.82;;;9.60;;
41293;SDS011;27037;52.010;4.446;2023-04-15T05:25:10;18.90;;;10.25;;
41293;SDS011;27037;52.010;4.446;2023-04-15T05:27:36;15.65;;;9.48;;
41293;SDS011;27037;52.010;4.446;2023-04-15T05:30:02;16.48;;;9.70;;
41293;SDS011;27037;52.010;4.446;2023-04-15T05:32:27;16.25;;;9.85;;
41293;SDS011;27037;52.010;4.446;2023-04-15T05:34:53;15.57;;;9.60;;
41293;SDS011;27037;52.010;4.446;2023-04-15T05:37:21;17.20;;;9.57;;
41293;SDS011;27037;52.010;4.446;2023-04-15T05:39:46;18.30;;;9.85;;
41293;SDS011;27037;52.010;4.446;2023-04-15T05:42:13;14.35;;;9.20;;
41293;SDS011;27037;52.010;4.446;2023-04-15T05:44:38;17.38;;;10.15;;
41293;SDS011;27037;52.010;4.446;2023-04-15T05:47:04;16.85;;;9.80;;
41293;SDS011;27037;52.010;4.446;2023-04-15T05:49:31;13.18;;;9.95;;
41293;SDS011;27037;52.010;4.446;2023-04-15T05:51:56;14.82;;;9.80;;
41293;SDS011;27037;52.010;4.446;2023-04-15T05:54:22;17.00;;;10.02;;
41293;SDS011;27037;52.010;4.446;2023-04-15T05:56:47;17.23;;;10.10;;
41293;SDS011;27037;52.010;4.446;2023-04-15T05:59:13;15.02;;;10.20;;
41293;SDS011;27037;52.010;4.446;2023-04-15T06:01:39;15.70;;;9.68;;
41293;SDS011;27037;52.010;4.446;2023-04-15T06:04:04;17.25;;;9.65;;
41293;SDS011;27037;52.010;4.446;2023-04-15T06:06:30;13.57;;;9.40;;
41293;SDS011;27037;52.010;4.446;2023-04-15T06:08:56;17.90;;;10.07;;
41293;SDS011;27037;52.010;4.446;2023-04-15T06:11:22;20.45;;;10.25;;
41293;SDS011;27037;52.010;4.446;2023-04-15T06:13:48;16.60;;;10.13;;
41293;SDS011;27037;52.010;4.446;2023-04-15T06:16:13;16.17;;;9.65;;
41293;SDS011;27037;52.010;4.446;2023-04-15T06:18:39;17.63;;;10.45;;
41293;SDS011;27037;52.010;4.446;2023-04-15T06:21:05;18.08;;;10.40;;
41293;SDS011;27037;52.010;4.446;2023-04-15T06:23:33;16.67;;;9.93;;
41293;SDS011;27037;52.010;4.446;2023-04-15T06:26:00;15.32;;;10.05;;
41293;SDS011;27037;52.010;4.446;2023-04-15T06:28:26;15.30;;;9.88;;
41293;SDS011;27037;52.010;4.446;2023-04-15T06:30:52;19.50;;;10.73;;
41293;SDS011;27037;52.010;4.446;2023-04-15T06:33:18;19.05;;;10.77;;
41293;SDS011;27037;52.010;4.446;2023-04-15T06:35:44;16.85;;;11.13;;
41293;SDS011;27037;52.010;4.446;2023-04-15T06:38:09;20.08;;;11.02;;
41293;SDS011;27037;52.010;4.446;2023-04-15T06:40:35;18.00;;;11.02;;
41293;SDS011;27037;52.010;4.446;2023-04-15T06:43:00;17.30;;;10.68;;
41293;SDS011;27037;52.010;4.446;2023-04-15T06:45:26;19.65;;;10.90;;
41293;SDS011;27037;52.010;4.446;2023-04-15T06:47:52;19.42;;;11.55;;
41293;SDS011;27037;52.010;4.446;2023-04-15T06:50:17;18.13;;;11.13;;
41293;SDS011;27037;52.010;4.446;2023-04-15T06:52:43;18.83;;;10.90;;
41293;SDS011;27037;52.010;4.446;2023-04-15T06:55:09;19.13;;;11.55;;
41293;SDS011;27037;52.010;4.446;2023-04-15T06:57:34;19.10;;;10.93;;
41293;SDS011;27037;52.010;4.446;2023-04-15T07:00:00;18.38;;;11.40;;
41293;SDS011;27037;52.010;4.446;2023-04-15T07:02:26;16.20;;;10.77;;
41293;SDS011;27037;52.010;4.446;2023-04-15T07:04:51;17.70;;;10.93;;
41293;SDS011;27037;52.010;4.446;2023-04-15T07:07:17;18.95;;;11.35;;
41293;SDS011;27037;52.010;4.446;2023-04-15T07:09:43;18.50;;;11.30;;
41293;SDS011;27037;52.010;4.446;2023-04-15T07:12:09;18.63;;;12.07;;
41293;SDS011;27037;52.010;4.446;2023-04-15T07:14:34;17.08;;;11.40;;
41293;SDS011;27037;52.010;4.446;2023-04-15T07:17:00;19.17;;;11.82;;
41293;SDS011;27037;52.010;4.446;2023-04-15T07:19:26;17.98;;;11.43;;
41293;SDS011;27037;52.010;4.446;2023-04-15T07:21:52;15.98;;;11.15;;
41293;SDS011;27037;52.010;4.446;2023-04-15T07:24:17;17.73;;;11.73;;
41293;SDS011;27037;52.010;4.446;2023-04-15T07:26:44;16.65;;;10.82;;
41293;SDS011;27037;52.010;4.446;2023-04-15T07:29:10;20.15;;;10.88;;
41293;SDS011;27037;52.010;4.446;2023-04-15T07:31:36;17.40;;;10.75;;
41293;SDS011;27037;52.010;4.446;2023-04-15T07:34:02;16.05;;;10.95;;
41293;SDS011;27037;52.010;4.446;2023-04-15T07:36:29;16.95;;;10.25;;
41293;SDS011;27037;52.010;4.446;2023-04-15T07:38:55;13.63;;;10.05;;
41293;SDS011;27037;52.010;4.446;2023-04-15T07:41:22;15.88;;;10.07;;
41293;SDS011;27037;52.010;4.446;2023-04-15T07:43:47;15.82;;;10.18;;
41293;SDS011;27037;52.010;4.446;2023-04-15T07:46:13;14.45;;;9.35;;
41293;SDS011;27037;52.010;4.446;2023-04-15T07:48:40;17.80;;;10.60;;
41293;SDS011;27037;52.010;4.446;2023-04-15T07:51:06;15.60;;;9.77;;
41293;SDS011;27037;52.010;4.446;2023-04-15T07:53:32;15.73;;;9.45;;
41293;SDS011;27037;52.010;4.446;2023-04-15T07:55:58;16.95;;;9.68;;
41293;SDS011;27037;52.010;4.446;2023-04-15T07:58:23;19.63;;;9.88;;
41293;SDS011;27037;52.010;4.446;2023-04-15T08:00:50;11.82;;;8.55;;
41293;SDS011;27037;52.010;4.446;2023-04-15T08:03:15;13.00;;;8.98;;
41293;SDS011;27037;52.010;4.446;2023-04-15T08:05:41;12.88;;;8.98;;
41293;SDS011;27037;52.010;4.446;2023-04-15T08:08:06;16.25;;;9.27;;
41293;SDS011;27037;52.010;4.446;2023-04-15T08:10:32;15.05;;;9.07;;
41293;SDS011;27037;52.010;4.446;2023-04-15T08:12:58;18.50;;;9.32;;
41293;SDS011;27037;52.010;4.446;2023-04-15T08:15:24;14.68;;;9.50;;
41293;SDS011;27037;52.010;4.446;2023-04-15T08:17:51;12.57;;;9.15;;
41293;SDS011;27037;52.010;4.446;2023-04-15T08:20:17;13.88;;;8.80;;
41293;SDS011;27037;52.010;4.446;2023-04-15T08:22:44;15.13;;;9.73;;
41293;SDS011;27037;52.010;4.446;2023-04-15T08:25:15;13.80;;;9.52;;
41293;SDS011;27037;52.010;4.446;2023-04-15T08:27:41;14.43;;;8.38;;
41293;SDS011;27037;52.010;4.446;2023-04-15T08:30:07;18.17;;;9.73;;
41293;SDS011;27037;52.010;4.446;2023-04-15T08:32:33;15.98;;;9.13;;
41293;SDS011;27037;52.010;4.446;2023-04-15T08:34:59;16.35;;;7.95;;
41293;SDS011;27037;52.010;4.446;2023-04-15T08:37:24;9.48;;;6.90;;
41293;SDS011;27037;52.010;4.446;2023-04-15T08:39:50;13.43;;;8.18;;
41293;SDS011;27037;52.010;4.446;2023-04-15T08:42:16;10.75;;;7.63;;
41293;SDS011;27037;52.010;4.446;2023-04-15T08:44:47;11.35;;;7.85;;
41293;SDS011;27037;52.010;4.446;2023-04-15T08:47:13;12.38;;;8.02;;
41293;SDS011;27037;52.010;4.446;2023-04-15T08:49:44;11.50;;;7.95;;
41293;SDS011;27037;52.010;4.446;2023-04-15T08:52:12;16.65;;;8.13;;
41293;SDS011;27037;52.010;4.446;2023-04-15T08:54:38;14.98;;;8.63;;
41293;SDS011;27037;52.010;4.446;2023-04-15T08:57:04;12.55;;;8.98;;
41293;SDS011;27037;52.010;4.446;2023-04-15T08:59:30;13.27;;;9.13;;
41293;SDS011;27037;52.010;4.446;2023-04-15T09:01:56;15.68;;;10.05;;
41293;SDS011;27037;52.010;4.446;2023-04-15T09:04:22;15.02;;;9.05;;
41293;SDS011;27037;52.010;4.446;2023-04-15T09:06:48;16.05;;;9.25;;
41293;SDS011;27037;52.010;4.446;2023-04-15T09:09:14;15.38;;;8.90;;
41293;SDS011;27037;52.010;4.446;2023-04-15T09:11:40;12.00;;;8.10;;
41293;SDS011;27037;52.010;4.446;2023-04-15T09:14:06;12.88;;;8.10;;
41293;SDS011;27037;52.010;4.446;2023-04-15T09:16:54;15.95;;;7.60;;
41293;SDS011;27037;52.010;4.446;2023-04-15T09:19:24;12.60;;;7.47;;
41293;SDS011;27037;52.010;4.446;2023-04-15T09:21:51;10.68;;;7.38;;
41293;SDS011;27037;52.010;4.446;2023-04-15T09:24:18;13.50;;;7.50;;
41293;SDS011;27037;52.010;4.446;2023-04-15T09:26:44;11.70;;;7.05;;
41293;SDS011;27037;52.010;4.446;2023-04-15T09:29:10;14.95;;;7.10;;
41293;SDS011;27037;52.010;4.446;2023-04-15T09:31:39;11.88;;;6.32;;
41293;SDS011;27037;52.010;4.446;2023-04-15T09:34:06;9.45;;;6.43;;
41293;SDS011;27037;52.010;4.446;2023-04-15T09:36:37;10.23;;;5.45;;
41293;SDS011;27037;52.010;4.446;2023-04-15T09:39:16;12.23;;;6.38;;
41293;SDS011;27037;52.010;4.446;2023-04-15T09:41:42;9.98;;;5.68;;
41293;SDS011;27037;52.010;4.446;2023-04-15T09:44:24;8.07;;;5.07;;
41293;SDS011;27037;52.010;4.446;2023-04-15T09:46:51;9.63;;;4.78;;
41293;SDS011;27037;52.010;4.446;2023-04-15T09:49:16;9.13;;;4.97;;
41293;SDS011;27037;52.010;4.446;2023-04-15T09:51:43;13.90;;;5.40;;
41293;SDS011;27037;52.010;4.446;2023-04-15T09:54:09;7.35;;;4.45;;
41293;SDS011;27037;52.010;4.446;2023-04-15T09:56:35;7.03;;;4.10;;
41293;SDS011;27037;52.010;4.446;2023-04-15T09:59:02;8.50;;;4.30;;
41293;SDS011;27037;52.010;4.446;2023-04-15T10:01:29;7.07;;;4.40;;
41293;SDS011;27037;52.010;4.446;2023-04-15T10:03:55;8.30;;;4.30;;
41293;SDS011;27037;52.010;4.446;2023-04-15T10:06:22;9.70;;;4.30;;
41293;SDS011;27037;52.010;4.446;2023-04-15T10:08:51;8.32;;;4.32;;
41293;SDS011;27037;52.010;4.446;2023-04-15T10:11:19;9.98;;;4.68;;
41293;SDS011;27037;52.010;4.446;2023-04-15T10:13:48;7.63;;;4.57;;
41293;SDS011;27037;52.010;4.446;2023-04-15T10:16:15;6.97;;;4.20;;
41293;SDS011;27037;52.010;4.446;2023-04-15T10:18:44;7.25;;;4.22;;
41293;SDS011;27037;52.010;4.446;2023-04-15T10:21:12;7.57;;;4.40;;
41293;SDS011;27037;52.010;4.446;2023-04-15T10:23:43;7.97;;;3.92;;
41293;SDS011;27037;52.010;4.446;2023-04-15T10:26:10;5.63;;;2.90;;
41293;SDS011;27037;52.010;4.446;2023-04-15T10:28:38;5.53;;;3.33;;
41293;SDS011;27037;52.010;4.446;2023-04-15T10:31:04;5.65;;;3.17;;
41293;SDS011;27037;52.010;4.446;2023-04-15T10:33:31;4.05;;;2.75;;
41293;SDS011;27037;52.010;4.446;2023-04-15T10:35:57;4.45;;;2.83;;
41293;SDS011;27037;52.010;4.446;2023-04-15T10:38:34;6.75;;;2.80;;
41293;SDS011;27037;52.010;4.446;2023-04-15T10:41:16;5.55;;;2.85;;
41293;SDS011;27037;52.010;4.446;2023-04-15T10:43:53;4.75;;;3.00;;
41293;SDS011;27037;52.010;4.446;2023-04-15T10:46:36;4.43;;;3.10;;
41293;SDS011;27037;52.010;4.446;2023-04-15T10:49:07;5.13;;;2.85;;
41293;SDS011;27037;52.010;4.446;2023-04-15T10:52:06;5.43;;;2.45;;
41293;SDS011;27037;52.010;4.446;2023-04-15T10:54:32;4.32;;;3.13;;
41293;SDS011;27037;52.010;4.446;2023-04-15T10:59:29;6.60;;;4.00;;
41293;SDS011;27037;52.010;4.446;2023-04-15T11:01:56;5.65;;;3.80;;
41293;SDS011;27037;52.010;4.446;2023-04-15T11:12:42;7.00;;;3.45;;
41293;SDS011;27037;52.010;4.446;2023-04-15T11:20:49;6.22;;;3.70;;
41293;SDS011;27037;52.010;4.446;2023-04-15T11:23:27;8.10;;;3.53;;
41293;SDS011;27037;52.010;4.446;2023-04-15T11:25:57;5.43;;;3.88;;
41293;SDS011;27037;52.010;4.446;2023-04-15T11:28:28;9.98;;;4.60;;
41293;SDS011;27037;52.010;4.446;2023-04-15T11:30:55;5.45;;;3.60;;
41293;SDS011;27037;52.010;4.446;2023-04-15T11:33:22;7.13;;;3.67;;
41293;SDS011;27037;52.010;4.446;2023-04-15T11:35:48;5.45;;;3.60;;
41293;SDS011;27037;52.010;4.446;2023-04-15T11:38:15;6.72;;;3.10;;
41293;SDS011;27037;52.010;4.446;2023-04-15T11:40:41;7.22;;;2.55;;
41293;SDS011;27037;52.010;4.446;2023-04-15T11:45:47;8.50;;;3.58;;
41293;SDS011;27037;52.010;4.446;2023-04-15T11:48:34;4.50;;;2.90;;
41293;SDS011;27037;52.010;4.446;2023-04-15T11:56:03;6.13;;;3.50;;
41293;SDS011;27037;52.010;4.446;2023-04-15T11:58:29;8.13;;;3.90;;
41293;SDS011;27037;52.010;4.446;2023-04-15T12:00:58;7.43;;;3.15;;
41293;SDS011;27037;52.010;4.446;2023-04-15T12:06:03;7.00;;;3.20;;
41293;SDS011;27037;52.010;4.446;2023-04-15T12:13:52;8.70;;;4.55;;
41293;SDS011;27037;52.010;4.446;2023-04-15T12:16:21;8.20;;;3.85;;
41293;SDS011;27037;52.010;4.446;2023-04-15T12:18:51;9.13;;;3.85;;
41293;SDS011;27037;52.010;4.446;2023-04-15T12:21:21;10.82;;;3.78;;
41293;SDS011;27037;52.010;4.446;2023-04-15T12:23:49;12.10;;;4.20;;
41293;SDS011;27037;52.010;4.446;2023-04-15T12:26:25;10.10;;;3.92;;
41293;SDS011;27037;52.010;4.446;2023-04-15T12:28:53;10.60;;;4.45;;
41293;SDS011;27037;52.010;4.446;2023-04-15T12:31:20;8.45;;;3.63;;
41293;SDS011;27037;52.010;4.446;2023-04-15T12:33:47;9.75;;;3.70;;
41293;SDS011;27037;52.010;4.446;2023-04-15T12:36:13;9.75;;;3.72;;
41293;SDS011;27037;52.010;4.446;2023-04-15T12:38:39;9.98;;;3.72;;
41293;SDS011;27037;52.010;4.446;2023-04-15T12:41:05;8.40;;;3.67;;
41293;SDS011;27037;52.010;4.446;2023-04-15T12:43:30;9.50;;;4.07;;
41293;SDS011;27037;52.010;4.446;2023-04-15T12:45:56;7.10;;;3.85;;
41293;SDS011;27037;52.010;4.446;2023-04-15T12:48:22;8.77;;;4.05;;
41293;SDS011;27037;52.010;4.446;2023-04-15T12:50:47;11.02;;;3.72;;
41293;SDS011;27037;52.010;4.446;2023-04-15T12:53:13;13.30;;;4.00;;
41293;SDS011;27037;52.010;4.446;2023-04-15T12:55:38;11.02;;;3.95;;
41293;SDS011;27037;52.010;4.446;2023-04-15T12:58:04;7.80;;;3.67;;
41293;SDS011;27037;52.010;4.446;2023-04-15T13:00:32;9.43;;;3.67;;
41293;SDS011;27037;52.010;4.446;2023-04-15T13:02:58;9.27;;;3.22;;
41293;SDS011;27037;52.010;4.446;2023-04-15T13:05:24;7.65;;;3.15;;
41293;SDS011;27037;52.010;4.446;2023-04-15T13:07:49;7.78;;;3.75;;
41293;SDS011;27037;52.010;4.446;2023-04-15T13:10:15;6.18;;;2.90;;
41293;SDS011;27037;52.010;4.446;2023-04-15T13:12:40;9.38;;;3.15;;
41293;SDS011;27037;52.010;4.446;2023-04-15T13:15:06;8.93;;;3.00;;
41293;SDS011;27037;52.010;4.446;2023-04-15T13:17:35;9.40;;;3.20;;
41293;SDS011;27037;52.010;4.446;2023-04-15T13:20:00;12.38;;;3.40;;
41293;SDS011;27037;52.010;4.446;2023-04-15T13:22:26;9.55;;;2.83;;
41293;SDS011;27037;52.010;4.446;2023-04-15T13:24:51;8.00;;;2.72;;
41293;SDS011;27037;52.010;4.446;2023-04-15T13:27:17;6.55;;;2.75;;
41293;SDS011;27037;52.010;4.446;2023-04-15T13:29:43;6.18;;;2.90;;
41293;SDS011;27037;52.010;4.446;2023-04-15T13:32:08;8.50;;;3.22;;
41293;SDS011;27037;52.010;4.446;2023-04-15T13:34:34;7.32;;;2.92;;
41293;SDS011;27037;52.010;4.446;2023-04-15T13:37:05;12.82;;;3.13;;
41293;SDS011;27037;52.010;4.446;2023-04-15T13:39:31;12.25;;;3.38;;
41293;SDS011;27037;52.010;4.446;2023-04-15T13:41:57;6.43;;;2.85;;
41293;SDS011;27037;52.010;4.446;2023-04-15T13:44:23;14.35;;;3.22;;
41293;SDS011;27037;52.010;4.446;2023-04-15T13:46:48;11.50;;;3.05;;
41293;SDS011;27037;52.010;4.446;2023-04-15T13:49:14;23.77;;;4.70;;
41293;SDS011;27037;52.010;4.446;2023-04-15T13:51:40;9.15;;;2.97;;
41293;SDS011;27037;52.010;4.446;2023-04-15T13:54:06;8.27;;;3.40;;
41293;SDS011;27037;52.010;4.446;2023-04-15T13:56:31;10.25;;;3.35;;
41293;SDS011;27037;52.010;4.446;2023-04-15T13:58:57;30.25;;;5.28;;
41293;SDS011;27037;52.010;4.446;2023-04-15T14:01:25;10.30;;;2.90;;
41293;SDS011;27037;52.010;4.446;2023-04-15T14:03:51;8.50;;;3.28;;
41293;SDS011;27037;52.010;4.446;2023-04-15T14:06:17;8.30;;;3.17;;
41293;SDS011;27037;52.010;4.446;2023-04-15T14:08:43;8.55;;;3.47;;
41293;SDS011;27037;52.010;4.446;2023-04-15T14:11:08;9.50;;;3.03;;
41293;SDS011;27037;52.010;4.446;2023-04-15T14:13:34;9.38;;;2.80;;
41293;SDS011;27037;52.010;4.446;2023-04-15T14:16:00;10.65;;;2.83;;
41293;SDS011;27037;52.010;4.446;2023-04-15T14:18:26;12.27;;;3.13;;
41293;SDS011;27037;52.010;4.446;2023-04-15T14:20:51;8.70;;;3.08;;
41293;SDS011;27037;52.010;4.446;2023-04-15T14:23:17;15.57;;;3.33;;
41293;SDS011;27037;52.010;4.446;2023-04-15T14:25:43;8.07;;;2.97;;
41293;SDS011;27037;52.010;4.446;2023-04-15T14:28:08;9.05;;;2.60;;
41293;SDS011;27037;52.010;4.446;2023-04-15T14:30:34;8.50;;;3.17;;
41293;SDS011;27037;52.010;4.446;2023-04-15T14:33:00;9.98;;;3.03;;
41293;SDS011;27037;52.010;4.446;2023-04-15T14:35:26;13.15;;;3.33;;
41293;SDS011;27037;52.010;4.446;2023-04-15T14:37:52;9.93;;;2.92;;
41293;SDS011;27037;52.010;4.446;2023-04-15T14:40:18;8.55;;;3.00;;
41293;SDS011;27037;52.010;4.446;2023-04-15T14:42:44;9.90;;;2.78;;
41293;SDS011;27037;52.010;4.446;2023-04-15T14:45:10;11.07;;;3.13;;
41293;SDS011;27037;52.010;4.446;2023-04-15T14:47:36;8.50;;;3.10;;
41293;SDS011;27037;52.010;4.446;2023-04-15T14:50:01;12.57;;;3.70;;
41293;SDS011;27037;52.010;4.446;2023-04-15T14:52:27;9.93;;;3.50;;
41293;SDS011;27037;52.010;4.446;2023-04-15T14:54:54;22.00;;;4.45;;
41293;SDS011;27037;52.010;4.446;2023-04-15T14:57:20;12.50;;;3.50;;
41293;SDS011;27037;52.010;4.446;2023-04-15T14:59:45;14.07;;;3.30;;
41293;SDS011;27037;52.010;4.446;2023-04-15T15:02:12;10.77;;;3.85;;
41293;SDS011;27037;52.010;4.446;2023-04-15T15:04:37;15.45;;;4.07;;